Time;durP1;ratioP1;P1;durP2;ratioP2;P2;SDS_P1;SDS_P2;PMS_P1;PMS_P2;Temp;Humidity;BMP_temperature;BMP_pressure;BME280_temperature;BME280_humidity;BME280_pressure;Samples;Min_cycle;Max_cycle;Signal;HPM_P1;HPM_P2
2021/12/26 16:26:49;;;;;;;30.88;16.23;;;-3.10;63.50;;;;;;6160829;22;1303774;-69
2021/12/26 16:29:15;;;;;;;33.85;16.67;;;-3.10;63.70;;;;;;6213717;23;20011;-69
2021/12/26 16:31:40;;;;;;;32.38;16.10;;;-3.10;63.80;;;;;;6213505;23;20005;-68
2021/12/26 16:34:06;;;;;;;35.10;17.75;;;-3.20;63.80;;;;;;6213655;23;20007;-70
2021/12/26 16:36:32;;;;;;;35.40;17.25;;;-3.20;63.90;;;;;;6213639;23;20004;-68
2021/12/26 16:38:57;;;;;;;35.63;17.92;;;-3.10;63.90;;;;;;6213693;23;20020;-69
2021/12/26 16:41:23;;;;;;;36.13;17.05;;;-3.20;64.00;;;;;;6213762;23;20481;-69
2021/12/26 16:43:49;;;;;;;22.80;11.82;;;-3.20;64.10;;;;;;6213548;23;19996;-68
2021/12/26 16:46:16;;;;;;;29.23;15.23;;;-3.20;64.40;;;;;;6213734;23;20332;-70
2021/12/26 16:48:42;;;;;;;31.48;16.85;;;-3.20;64.50;;;;;;6212034;23;20035;-68
2021/12/26 16:51:10;;;;;;;27.95;13.93;;;-3.20;64.80;;;;;;6213644;23;20028;-68
2021/12/26 16:53:36;;;;;;;26.67;13.38;;;-3.30;64.80;;;;;;6213579;23;20001;-69
2021/12/26 16:56:02;;;;;;;30.00;16.02;;;-3.30;65.10;;;;;;6213095;23;20046;-71
2021/12/26 16:58:27;;;;;;;35.20;16.67;;;-3.30;65.20;;;;;;6213870;23;20028;-69
2021/12/26 17:00:54;;;;;;;36.25;17.10;;;-3.40;65.50;;;;;;6213987;23;20000;-70
2021/12/26 17:03:20;;;;;;;42.63;17.73;;;-3.40;65.80;;;;;;6213765;23;20039;-69
2021/12/26 17:05:46;;;;;;;44.17;18.52;;;-3.40;65.90;;;;;;6214170;23;20027;-70
2021/12/26 17:08:12;;;;;;;47.83;19.33;;;-3.40;66.10;;;;;;6213537;23;20001;-70
2021/12/26 17:10:38;;;;;;;41.30;18.77;;;-3.40;66.20;;;;;;6213467;23;20443;-68
2021/12/26 17:13:05;;;;;;;39.53;18.50;;;-3.50;66.30;;;;;;6213166;23;20004;-70
2021/12/26 17:15:32;;;;;;;40.80;18.95;;;-3.50;66.40;;;;;;6213335;23;20012;-68
2021/12/26 17:17:57;;;;;;;37.20;16.70;;;-3.50;66.60;;;;;;6213314;23;20332;-68
2021/12/26 17:20:23;;;;;;;33.47;14.93;;;-3.60;66.70;;;;;;6213339;23;20051;-68
2021/12/26 17:22:49;;;;;;;34.95;16.75;;;-3.60;66.80;;;;;;6213209;23;20003;-69
2021/12/26 17:25:15;;;;;;;33.55;15.90;;;-3.60;66.90;;;;;;6213108;23;20363;-69
2021/12/26 17:27:41;;;;;;;36.90;16.98;;;-3.60;67.00;;;;;;6212949;23;20018;-69
2021/12/26 17:30:12;;;;;;;33.88;16.00;;;-3.60;67.30;;;;;;6213290;23;20071;-69
2021/12/26 17:32:38;;;;;;;40.30;19.08;;;-3.60;67.40;;;;;;6213121;23;20031;-68
2021/12/26 17:35:04;;;;;;;39.17;18.73;;;-3.60;67.40;;;;;;6212813;23;20068;-69
2021/12/26 17:37:30;;;;;;;46.38;20.25;;;-3.70;67.50;;;;;;6212912;23;20000;-69
2021/12/26 17:39:56;;;;;;;46.58;20.40;;;-3.70;67.70;;;;;;6212597;23;20011;-69
2021/12/26 17:42:22;;;;;;;39.47;19.73;;;-3.70;67.80;;;;;;6213069;23;19996;-69
2021/12/26 17:44:50;;;;;;;34.42;16.58;;;-3.70;68.00;;;;;;6212985;23;20004;-69
2021/12/26 17:47:16;;;;;;;31.88;15.10;;;-3.70;68.40;;;;;;6213184;23;20028;-69
2021/12/26 17:49:42;;;;;;;26.45;13.90;;;-3.80;68.50;;;;;;6213044;23;20435;-69
2021/12/26 17:52:08;;;;;;;28.27;15.60;;;-3.80;68.80;;;;;;6213143;23;20076;-70
2021/12/26 17:54:34;;;;;;;30.25;15.73;;;-3.90;69.00;;;;;;6212800;23;20289;-69
2021/12/26 17:57:00;;;;;;;30.52;17.02;;;-4.00;69.30;;;;;;6212764;23;20024;-68
2021/12/26 17:59:26;;;;;;;30.85;15.13;;;-4.10;69.60;;;;;;6212917;23;20412;-69
2021/12/26 18:01:53;;;;;;;25.40;13.88;;;-4.10;69.90;;;;;;6186327;23;20039;-70
2021/12/26 18:04:20;;;;;;;29.90;15.13;;;-4.20;70.40;;;;;;6213061;23;20092;-70
2021/12/26 18:06:47;;;;;;;30.38;15.52;;;-4.20;70.50;;;;;;6212802;23;20001;-68
2021/12/26 18:09:13;;;;;;;22.58;11.77;;;-4.30;70.90;;;;;;6212932;23;20005;-69
2021/12/26 18:11:39;;;;;;;23.25;12.00;;;-4.40;70.90;;;;;;6186147;23;20009;-70
2021/12/26 18:14:06;;;;;;;35.28;15.18;;;-4.40;71.10;;;;;;6213106;23;20000;-70
2021/12/26 18:16:32;;;;;;;38.75;19.17;;;-4.40;71.20;;;;;;6212799;23;20089;-71
2021/12/26 18:19:01;;;;;;;40.42;19.63;;;-4.40;71.50;;;;;;6213154;23;19996;-69
2021/12/26 18:21:27;;;;;;;41.85;19.83;;;-4.40;71.60;;;;;;6212887;23;20004;-70
2021/12/26 18:23:53;;;;;;;35.83;16.60;;;-4.40;71.70;;;;;;6212502;23;20001;-68
2021/12/26 18:26:20;;;;;;;36.25;17.58;;;-4.40;71.80;;;;;;6212780;23;20144;-69
2021/12/26 18:28:47;;;;;;;39.45;17.85;;;-4.40;71.80;;;;;;6213036;23;20008;-70
2021/12/26 18:31:13;;;;;;;42.40;20.98;;;-4.40;71.80;;;;;;6212957;23;20419;-70
2021/12/26 18:33:39;;;;;;;43.00;21.40;;;-4.40;71.90;;;;;;6186350;23;20012;-70
2021/12/26 18:36:05;;;;;;;49.58;22.30;;;-4.40;71.90;;;;;;6213290;23;20712;-70
2021/12/26 18:38:31;;;;;;;54.13;23.75;;;-4.50;71.70;;;;;;6212794;23;20012;-69
2021/12/26 18:40:57;;;;;;;55.83;24.67;;;-4.50;71.70;;;;;;6213006;23;20328;-70
2021/12/26 18:43:22;;;;;;;48.30;20.48;;;-4.50;71.60;;;;;;6212719;23;19997;-69
2021/12/26 18:45:50;;;;;;;43.58;19.60;;;-4.50;71.50;;;;;;6186470;23;20004;-70
2021/12/26 18:48:17;;;;;;;37.50;18.30;;;-4.50;71.50;;;;;;6212991;23;20384;-69
2021/12/26 18:50:44;;;;;;;38.97;19.48;;;-4.50;71.50;;;;;;6212994;23;20450;-71
2021/12/26 18:53:11;;;;;;;53.95;25.38;;;-4.50;71.40;;;;;;6212953;23;20005;-68
2021/12/26 18:55:38;;;;;;;74.22;30.85;;;-4.50;71.90;;;;;;6212999;23;20000;-69
2021/12/26 18:58:05;;;;;;;110.57;40.17;;;-4.50;71.50;;;;;;6213059;23;20007;-69
2021/12/26 19:00:33;;;;;;;99.32;36.95;;;-4.50;71.60;;;;;;6213118;23;20008;-70
2021/12/26 19:02:59;;;;;;;81.13;32.90;;;-4.60;71.50;;;;;;6212910;23;20357;-69
2021/12/26 19:05:33;;;;;;;69.75;29.33;;;-4.60;71.70;;;;;;6212586;23;20020;-69
2021/12/26 19:07:59;;;;;;;62.10;25.58;;;-4.60;71.80;;;;;;6212637;23;20000;-69
2021/12/26 19:10:26;;;;;;;42.97;19.67;;;-4.60;71.90;;;;;;6212704;23;20005;-70
2021/12/26 19:12:53;;;;;;;27.40;14.77;;;-4.60;71.80;;;;;;6212765;23;20080;-70
2021/12/26 19:15:19;;;;;;;20.80;11.68;;;-4.70;71.90;;;;;;6185926;23;20031;-69
2021/12/26 19:17:45;;;;;;;19.50;11.43;;;-4.70;72.10;;;;;;6212952;23;20077;-70
2021/12/26 19:20:11;;;;;;;31.05;13.85;;;-4.80;72.30;;;;;;6214155;23;20005;-69
2021/12/26 19:22:37;;;;;;;27.95;14.20;;;-4.80;72.50;;;;;;6215454;23;20005;-70
2021/12/26 19:25:04;;;;;;;36.13;16.88;;;-4.90;72.70;;;;;;6214222;23;20325;-70
2021/12/26 19:27:29;;;;;;;28.60;14.48;;;-4.90;72.70;;;;;;6214422;23;20004;-70
2021/12/26 19:29:55;;;;;;;30.23;14.52;;;-4.90;72.80;;;;;;6213855;23;20004;-69
2021/12/26 19:32:21;;;;;;;30.33;15.07;;;-5.00;73.00;;;;;;6214129;23;20008;-70
2021/12/26 19:34:47;;;;;;;29.83;14.38;;;-5.00;73.20;;;;;;6213814;23;20021;-70
2021/12/26 19:37:14;;;;;;;31.75;15.43;;;-5.10;73.20;;;;;;6213761;23;20015;-69
2021/12/26 19:39:40;;;;;;;27.65;14.50;;;-5.10;73.50;;;;;;6213925;23;20001;-69
2021/12/26 19:42:07;;;;;;;28.42;14.98;;;-5.10;74.40;;;;;;6213434;23;19996;-69
2021/12/26 19:44:34;;;;;;;36.22;18.48;;;-5.20;73.80;;;;;;6214048;23;20011;-70
2021/12/26 19:47:01;;;;;;;36.80;19.35;;;-5.20;73.70;;;;;;6214053;23;20332;-70
2021/12/26 19:49:29;;;;;;;25.42;13.43;;;-5.20;74.00;;;;;;6214212;23;20004;-69
2021/12/26 19:51:54;;;;;;;25.13;13.55;;;-5.30;74.20;;;;;;6214021;23;20012;-69
2021/12/26 19:54:21;;;;;;;24.05;12.93;;;-5.30;74.70;;;;;;6214216;23;20332;-70
2021/12/26 19:56:47;;;;;;;18.83;10.85;;;-5.30;74.30;;;;;;6214025;23;20362;-70
2021/12/26 19:59:13;;;;;;;16.20;9.10;;;-5.30;74.30;;;;;;6214176;23;20062;-68
2021/12/26 20:01:42;;;;;;;15.68;8.35;;;-5.30;74.50;;;;;;6213963;23;19997;-69
2021/12/26 20:04:09;;;;;;;17.30;9.00;;;-5.40;74.30;;;;;;6213931;23;20076;-69
2021/12/26 20:06:37;;;;;;;21.67;11.02;;;-5.40;74.50;;;;;;6209110;23;20440;-69
2021/12/26 20:09:04;;;;;;;22.45;11.30;;;-5.40;74.60;;;;;;6211184;23;20001;-69
2021/12/26 20:11:29;;;;;;;16.50;9.32;;;-5.40;74.70;;;;;;6214221;23;20000;-69
2021/12/26 20:13:55;;;;;;;16.45;8.80;;;-5.40;74.90;;;;;;6214296;23;20007;-70
2021/12/26 20:16:21;;;;;;;17.80;9.57;;;-5.40;74.90;;;;;;6213773;23;20059;-69
2021/12/26 20:18:48;;;;;;;19.38;9.88;;;-5.50;74.90;;;;;;6213878;23;20004;-68
2021/12/26 20:21:15;;;;;;;19.83;9.82;;;-5.50;74.80;;;;;;6214198;23;20001;-69
2021/12/26 20:23:42;;;;;;;17.33;9.65;;;-5.50;75.00;;;;;;6213806;23;20001;-70
2021/12/26 20:26:10;;;;;;;16.35;8.93;;;-5.50;75.10;;;;;;6213725;23;20470;-69
2021/12/26 20:28:36;;;;;;;14.10;8.25;;;-5.60;75.20;;;;;;6213796;23;20416;-69
2021/12/26 20:31:05;;;;;;;15.13;8.40;;;-5.60;75.20;;;;;;6213646;23;20001;-68
2021/12/26 20:33:31;;;;;;;15.13;8.10;;;-5.60;75.20;;;;;;6213415;23;20032;-68
2021/12/26 20:35:57;;;;;;;16.33;8.75;;;-5.50;75.50;;;;;;6213235;23;20450;-69
2021/12/26 20:38:23;;;;;;;17.23;9.25;;;-5.60;75.50;;;;;;6213266;23;19997;-69
2021/12/26 20:40:50;;;;;;;20.80;10.75;;;-5.60;75.70;;;;;;6213168;23;20328;-69
2021/12/26 20:43:17;;;;;;;21.17;11.95;;;-5.60;75.60;;;;;;6213213;23;20000;-69
2021/12/26 20:45:44;;;;;;;20.98;11.60;;;-5.60;75.70;;;;;;6213173;23;20015;-69
2021/12/26 20:48:11;;;;;;;19.88;10.45;;;-5.60;75.70;;;;;;6213605;23;20043;-69
2021/12/26 20:50:37;;;;;;;16.65;9.52;;;-5.60;75.90;;;;;;6213602;23;20067;-69
2021/12/26 20:53:03;;;;;;;16.98;9.65;;;-5.70;76.00;;;;;;6213692;23;20036;-68
2021/12/26 20:55:29;;;;;;;18.10;9.68;;;-5.70;75.80;;;;;;6213200;23;20004;-69
2021/12/26 20:57:55;;;;;;;19.30;10.13;;;-5.70;75.90;;;;;;6213388;23;20058;-68
2021/12/26 21:00:24;;;;;;;19.73;10.32;;;-5.70;75.80;;;;;;6213400;23;20008;-69
2021/12/26 21:02:50;;;;;;;19.05;11.00;;;-5.80;76.00;;;;;;6213845;23;20011;-70
2021/12/26 21:05:17;;;;;;;22.33;12.38;;;-5.70;76.20;;;;;;6213599;23;20021;-71
2021/12/26 21:07:44;;;;;;;28.98;14.40;;;-5.70;76.50;;;;;;6213295;23;20004;-69
2021/12/26 21:10:11;;;;;;;26.20;14.77;;;-5.70;76.60;;;;;;6213543;23;20005;-69
2021/12/26 21:12:37;;;;;;;25.23;14.73;;;-5.60;76.70;;;;;;6186713;23;20339;-70
2021/12/26 21:15:04;;;;;;;36.47;18.55;;;-5.70;76.50;;;;;;6213258;23;20012;-69
2021/12/26 21:17:29;;;;;;;38.58;20.08;;;-5.70;76.60;;;;;;6213304;23;20012;-69
2021/12/26 21:19:55;;;;;;;42.40;21.83;;;-5.60;76.80;;;;;;6213108;23;20416;-70
2021/12/26 21:22:21;;;;;;;43.08;22.92;;;-5.60;76.70;;;;;;6213303;23;20071;-69
2021/12/26 21:24:47;;;;;;;49.70;23.85;;;-5.60;76.90;;;;;;6213383;23;20492;-69
2021/12/26 21:27:13;;;;;;;44.70;23.60;;;-5.60;77.00;;;;;;6213025;23;20017;-68
2021/12/26 21:29:38;;;;;;;39.70;20.83;;;-5.70;76.90;;;;;;6213162;23;20000;-69
2021/12/26 21:32:05;;;;;;;37.53;20.00;;;-5.70;77.10;;;;;;6213166;23;20000;-69
2021/12/26 21:34:31;;;;;;;33.70;18.90;;;-5.70;77.20;;;;;;6213229;23;20011;-68
2021/12/26 21:36:56;;;;;;;38.15;19.38;;;-5.70;77.20;;;;;;6213086;23;20008;-71
2021/12/26 21:39:23;;;;;;;40.08;22.48;;;-5.70;77.40;;;;;;6213670;23;20001;-70
2021/12/26 21:41:48;;;;;;;40.78;21.20;;;-5.70;77.40;;;;;;6212786;23;20438;-69
2021/12/26 21:44:14;;;;;;;43.92;24.98;;;-5.80;77.50;;;;;;6212988;23;19997;-70
2021/12/26 21:46:41;;;;;;;49.72;27.85;;;-5.80;77.60;;;;;;6213263;23;20443;-69
2021/12/26 21:49:08;;;;;;;52.28;30.15;;;-5.80;77.70;;;;;;6213643;23;20007;-69
2021/12/26 21:51:36;;;;;;;62.33;32.17;;;-5.80;77.90;;;;;;6214711;23;20039;-68
2021/12/26 21:54:04;;;;;;;48.95;25.85;;;-5.80;78.10;;;;;;6212903;23;20005;-69
2021/12/26 21:56:30;;;;;;;41.42;22.90;;;-5.90;78.00;;;;;;6186998;23;20332;-69
2021/12/26 21:58:56;;;;;;;43.45;23.40;;;-5.90;78.20;;;;;;6186952;23;20424;-68
2021/12/26 22:01:22;;;;;;;36.10;20.42;;;-5.90;78.30;;;;;;6213218;23;20007;-68
2021/12/26 22:03:48;;;;;;;35.40;19.77;;;-5.80;78.50;;;;;;6213002;23;20076;-68
2021/12/26 22:06:18;;;;;;;35.42;20.58;;;-5.90;78.40;;;;;;6212978;23;20001;-71
2021/12/26 22:08:43;;;;;;;37.85;21.30;;;-5.90;78.50;;;;;;6212988;23;20441;-68
2021/12/26 22:11:09;;;;;;;47.38;26.63;;;-5.80;78.60;;;;;;6212921;23;20029;-68
2021/12/26 22:13:35;;;;;;;42.60;24.52;;;-5.90;78.40;;;;;;6212975;23;19997;-69
2021/12/26 22:16:01;;;;;;;41.58;23.08;;;-5.90;78.60;;;;;;6212631;23;20005;-70
2021/12/26 22:18:27;;;;;;;32.00;17.83;;;-5.90;78.70;;;;;;6213010;23;20000;-68
2021/12/26 22:20:53;;;;;;;29.08;17.15;;;-5.90;78.60;;;;;;6211061;23;20026;-68
2021/12/26 22:23:18;;;;;;;31.35;17.10;;;-5.90;78.60;;;;;;6211979;23;19997;-68
2021/12/26 22:25:44;;;;;;;29.67;16.15;;;-5.90;78.50;;;;;;6212596;23;20024;-68
2021/12/26 22:28:10;;;;;;;26.90;15.10;;;-6.00;78.40;;;;;;6212900;23;20452;-67
2021/12/26 22:30:36;;;;;;;31.83;17.50;;;-6.00;78.60;;;;;;6212580;23;20009;-68
2021/12/26 22:33:03;;;;;;;33.42;17.05;;;-6.00;78.70;;;;;;6213051;23;20004;-68
2021/12/26 22:35:28;;;;;;;28.92;16.13;;;-6.00;78.70;;;;;;6186592;23;20700;-67
2021/12/26 22:37:54;;;;;;;38.58;20.65;;;-6.00;78.90;;;;;;6213171;23;20035;-67
2021/12/26 22:40:21;;;;;;;41.63;22.27;;;-6.00;79.00;;;;;;6212967;23;20001;-63
2021/12/26 22:42:48;;;;;;;41.00;20.98;;;-6.10;79.10;;;;;;6213044;23;20075;-65
2021/12/26 22:45:14;;;;;;;36.58;19.30;;;-6.10;79.40;;;;;;6213002;23;20000;-65
2021/12/26 22:47:41;;;;;;;36.75;18.77;;;-6.10;79.70;;;;;;6213152;23;20012;-66
2021/12/26 22:50:14;;;;;;;34.80;18.95;;;-6.10;79.70;;;;;;6212995;23;20051;-66
2021/12/26 22:52:40;;;;;;;37.25;18.48;;;-6.10;79.60;;;;;;6186329;23;20369;-68
2021/12/26 22:55:06;;;;;;;31.60;16.20;;;-6.10;79.60;;;;;;6214293;23;20007;-66
2021/12/26 22:57:32;;;;;;;30.15;16.27;;;-6.10;79.70;;;;;;6215444;23;20005;-66
2021/12/26 22:59:57;;;;;;;30.63;16.65;;;-6.10;79.80;;;;;;6215051;23;20474;-68
2021/12/26 23:02:23;;;;;;;32.70;16.92;;;-6.10;79.80;;;;;;6214563;23;20424;-65
2021/12/26 23:04:49;;;;;;;29.42;15.63;;;-6.20;79.70;;;;;;6214960;23;20011;-65
2021/12/26 23:07:14;;;;;;;26.10;14.05;;;-6.10;80.00;;;;;;6215027;23;20416;-65
2021/12/26 23:09:41;;;;;;;25.33;14.25;;;-6.10;80.00;;;;;;6214959;23;20005;-66
2021/12/26 23:12:08;;;;;;;27.42;14.77;;;-6.20;80.00;;;;;;6214317;23;20004;-65
2021/12/26 23:14:34;;;;;;;26.42;13.90;;;-6.20;80.30;;;;;;6214286;23;20008;-66
2021/12/26 23:17:00;;;;;;;25.98;13.73;;;-6.20;80.20;;;;;;6214548;23;20008;-64
2021/12/26 23:19:26;;;;;;;25.50;13.77;;;-6.20;80.30;;;;;;6215054;23;20017;-65
2021/12/26 23:21:52;;;;;;;27.33;13.65;;;-6.10;80.30;;;;;;6214632;23;20001;-64
2021/12/26 23:24:18;;;;;;;29.25;14.95;;;-6.10;80.30;;;;;;6214437;23;20001;-65
2021/12/26 23:26:44;;;;;;;27.55;14.15;;;-6.10;80.20;;;;;;6214616;23;20381;-65
2021/12/26 23:29:10;;;;;;;26.92;14.05;;;-6.10;80.20;;;;;;6187844;23;20015;-66
2021/12/26 23:31:36;;;;;;;25.75;13.52;;;-6.10;80.30;;;;;;6214267;23;20060;-66
2021/12/26 23:34:03;;;;;;;23.58;12.68;;;-6.10;80.30;;;;;;6214015;23;20008;-65
2021/12/26 23:36:29;;;;;;;23.23;13.10;;;-6.10;80.20;;;;;;6214635;23;20085;-64
2021/12/26 23:38:55;;;;;;;27.77;13.98;;;-6.10;80.10;;;;;;6214748;23;20365;-63
2021/12/26 23:41:24;;;;;;;25.17;13.90;;;-6.20;80.00;;;;;;6214247;23;20008;-65
2021/12/26 23:43:53;;;;;;;23.60;12.90;;;-6.20;80.20;;;;;;6214102;23;20101;-67
2021/12/26 23:46:26;;;;;;;21.95;12.52;;;-6.20;80.40;;;;;;6214321;23;20005;-66
2021/12/26 23:48:52;;;;;;;22.85;13.18;;;-6.20;80.70;;;;;;6214514;23;20027;-66
2021/12/26 23:51:18;;;;;;;21.55;12.38;;;-6.30;80.50;;;;;;6214500;23;20005;-65
2021/12/26 23:53:43;;;;;;;71.78;48.45;;;-6.30;80.50;;;;;;6214049;23;20481;-62
2021/12/26 23:56:09;;;;;;;72.00;52.22;;;-6.30;81.50;;;;;;6214495;23;20012;-58
2021/12/26 23:58:35;;;;;;;50.88;35.80;;;-6.10;81.90;;;;;;6214609;23;20464;-56
